createdAt,value
2018-01-14T00:01:13.658Z,15.10
2018-01-14T00:03:41.374Z,15.50
2018-01-14T00:06:09.211Z,15.90
2018-01-14T00:08:36.815Z,16.10
2018-01-14T00:11:05.199Z,15.87
2018-01-14T00:13:33.672Z,14.57
2018-01-14T00:16:02.057Z,15.93
2018-01-14T00:18:30.458Z,14.57
2018-01-14T00:20:58.197Z,15.73
2018-01-14T00:23:26.620Z,16.03
2018-01-14T00:25:54.281Z,14.03
2018-01-14T00:28:22.044Z,15.73
2018-01-14T00:30:49.834Z,14.20
2018-01-14T00:33:17.469Z,14.10
2018-01-14T00:35:45.084Z,14.33
2018-01-14T00:38:12.888Z,14.43
2018-01-14T00:40:40.517Z,15.53
2018-01-14T00:43:08.110Z,15.47
2018-01-14T00:45:35.745Z,16.70
2018-01-14T00:48:03.403Z,15.00
2018-01-14T00:50:31.190Z,14.90
2018-01-14T00:52:58.820Z,15.47
2018-01-14T00:55:26.458Z,15.23
2018-01-14T00:57:54.888Z,15.13
2018-01-14T01:00:22.484Z,13.40
2018-01-14T01:02:50.986Z,13.50
2018-01-14T01:05:18.790Z,15.13
2018-01-14T01:07:46.386Z,15.30
2018-01-14T01:10:14.138Z,14.30
2018-01-14T01:12:41.910Z,13.70
2018-01-14T01:15:09.526Z,13.73
2018-01-14T01:17:37.150Z,13.67
2018-01-14T01:20:05.675Z,14.50
2018-01-14T01:22:33.354Z,12.07
2018-01-14T01:25:00.968Z,12.50
2018-01-14T01:27:28.570Z,12.63
2018-01-14T01:29:56.307Z,14.33
2018-01-14T01:32:23.912Z,12.47
2018-01-14T01:34:52.270Z,13.80
2018-01-14T01:37:20.115Z,12.87
2018-01-14T01:39:47.769Z,14.00
2018-01-14T01:42:15.537Z,13.00
2018-01-14T01:44:43.449Z,11.70
2018-01-14T01:47:11.992Z,11.10
2018-01-14T01:49:39.801Z,11.43
2018-01-14T01:52:08.180Z,12.40
2018-01-14T01:54:36.594Z,11.40
2018-01-14T01:57:04.468Z,11.00
2018-01-14T01:59:32.121Z,11.80
2018-01-14T02:01:59.892Z,10.60
2018-01-14T02:04:27.598Z,12.30
2018-01-14T02:06:56.053Z,12.30
2018-01-14T02:09:23.793Z,10.03
2018-01-14T02:11:51.406Z,12.00
2018-01-14T02:14:19.881Z,10.50
2018-01-14T02:16:48.234Z,11.37
2018-01-14T02:19:15.860Z,11.97
2018-01-14T02:21:43.523Z,12.10
2018-01-14T02:24:11.291Z,11.73
2018-01-14T02:26:38.987Z,10.30
2018-01-14T02:29:07.539Z,11.90
2018-01-14T02:31:35.246Z,11.07
2018-01-14T02:34:04.010Z,10.50
2018-01-14T02:36:31.614Z,10.93
2018-01-14T02:38:59.403Z,10.87
2018-01-14T02:41:27.197Z,9.90
2018-01-14T02:43:55.033Z,9.87
2018-01-14T02:46:22.681Z,9.30
2018-01-14T02:48:50.402Z,10.90
2018-01-14T02:51:18.861Z,10.17
2018-01-14T02:53:46.691Z,10.83
2018-01-14T02:56:14.411Z,9.90
2018-01-14T02:58:42.776Z,10.70
2018-01-14T03:01:11.170Z,10.17
2018-01-14T03:03:38.977Z,9.60
2018-01-14T03:06:06.736Z,10.73
2018-01-14T03:08:34.363Z,9.73
2018-01-14T03:11:01.958Z,9.83
2018-01-14T03:13:29.566Z,10.83
2018-01-14T03:15:58.247Z,10.40
2018-01-14T03:18:26.785Z,10.30
2018-01-14T03:20:54.467Z,9.73
2018-01-14T03:23:22.264Z,10.90
2018-01-14T03:25:49.853Z,10.67
2018-01-14T03:28:17.484Z,9.40
2018-01-14T03:30:45.360Z,9.50
2018-01-14T03:33:13.080Z,10.03
2018-01-14T03:35:41.631Z,11.63
2018-01-14T03:38:09.227Z,9.40
2018-01-14T03:40:37.606Z,9.53
2018-01-14T03:43:06.069Z,10.03
2018-01-14T03:45:33.708Z,9.20
2018-01-14T03:48:01.303Z,10.70
2018-01-14T03:50:29.670Z,9.63
2018-01-14T03:52:58.032Z,9.27
2018-01-14T03:55:25.745Z,9.17
2018-01-14T03:57:53.650Z,9.97
2018-01-14T04:00:21.244Z,8.93
2018-01-14T04:02:49.609Z,8.90
2018-01-14T04:05:17.219Z,9.33
2018-01-14T04:07:44.850Z,10.00
2018-01-14T04:10:13.326Z,8.70
2018-01-14T04:12:41.784Z,9.50
2018-01-14T04:15:09.380Z,11.03
2018-01-14T04:17:37.097Z,10.20
2018-01-14T04:20:04.698Z,9.77
2018-01-14T04:22:32.559Z,9.80
2018-01-14T04:25:01.195Z,8.80
2018-01-14T04:27:28.797Z,11.60
2018-01-14T04:29:56.501Z,10.20
2018-01-14T04:32:24.095Z,10.27
2018-01-14T04:34:51.772Z,10.03
2018-01-14T04:37:20.304Z,10.90
2018-01-14T04:39:47.943Z,10.20
2018-01-14T04:42:15.543Z,10.43
2018-01-14T04:44:43.318Z,10.30
2018-01-14T04:47:10.995Z,10.87
2018-01-14T04:49:39.445Z,10.03
2018-01-14T04:52:07.029Z,12.17
2018-01-14T04:54:35.627Z,9.07
2018-01-14T04:57:03.267Z,10.10
2018-01-14T04:59:31.731Z,9.97
2018-01-14T05:02:00.099Z,10.70
2018-01-14T05:04:27.704Z,9.10
2018-01-14T05:06:55.455Z,9.60
2018-01-14T05:09:23.821Z,10.20
2018-01-14T05:11:52.386Z,10.43
2018-01-14T05:14:20.225Z,9.80
2018-01-14T05:16:47.914Z,10.73
2018-01-14T05:19:15.852Z,9.90
2018-01-14T05:21:43.493Z,11.33
2018-01-14T05:24:11.274Z,12.40
2018-01-14T05:26:39.037Z,11.97
2018-01-14T05:29:06.642Z,11.50
2018-01-14T05:31:35.018Z,12.30
2018-01-14T05:34:03.374Z,12.03
2018-01-14T05:36:31.021Z,9.90
2018-01-14T05:38:58.736Z,12.23
2018-01-14T05:41:26.325Z,11.20
2018-01-14T05:43:53.939Z,11.07
2018-01-14T05:46:22.365Z,10.87
2018-01-14T05:48:50.094Z,10.50
2018-01-14T05:51:17.688Z,11.13
2018-01-14T05:53:45.352Z,11.50
2018-01-14T05:56:12.994Z,11.07
2018-01-14T05:58:40.689Z,12.27
2018-01-14T06:01:08.293Z,12.00
2018-01-14T06:03:35.907Z,11.93
2018-01-14T06:06:03.749Z,10.90
2018-01-14T06:08:31.397Z,9.93
2018-01-14T06:10:59.104Z,10.17
2018-01-14T06:13:26.858Z,9.60
2018-01-14T06:15:54.565Z,9.90
2018-01-14T06:18:22.230Z,8.53
2018-01-14T06:20:49.882Z,11.30
2018-01-14T06:23:17.471Z,11.43
2018-01-14T06:25:45.085Z,9.37
2018-01-14T06:28:13.558Z,9.07
2018-01-14T06:30:42.195Z,9.33
2018-01-14T06:33:09.796Z,9.77
2018-01-14T06:35:38.205Z,9.80
2018-01-14T06:38:05.995Z,8.97
2018-01-14T06:40:34.433Z,8.97
2018-01-14T06:43:02.954Z,9.23
2018-01-14T06:45:30.558Z,10.70
2018-01-14T06:47:58.941Z,10.17
2018-01-14T06:50:27.307Z,10.00
2018-01-14T06:52:55.678Z,10.00
2018-01-14T06:55:23.286Z,10.90
2018-01-14T06:57:51.102Z,10.60
2018-01-14T07:00:18.932Z,10.27
2018-01-14T07:02:46.696Z,11.50
2018-01-14T07:05:14.286Z,10.70
2018-01-14T07:07:41.893Z,11.37
2018-01-14T07:10:09.557Z,10.57
2018-01-14T07:12:37.257Z,11.20
2018-01-14T07:15:05.026Z,12.53
2018-01-14T07:17:32.665Z,12.67
2018-01-14T07:20:00.267Z,13.67
2018-01-14T07:22:28.693Z,13.30
2018-01-14T07:24:56.353Z,13.10
2018-01-14T07:27:23.980Z,12.17
2018-01-14T07:29:51.703Z,12.87
2018-01-14T07:32:19.400Z,12.20
2018-01-14T07:34:47.012Z,14.37
2018-01-14T07:37:14.711Z,13.30
2018-01-14T07:39:43.091Z,16.80
2018-01-14T07:42:10.822Z,13.00
2018-01-14T07:44:38.581Z,11.43
2018-01-14T07:47:06.170Z,12.93
2018-01-14T07:49:33.762Z,12.20
2018-01-14T07:52:01.372Z,11.33
2018-01-14T07:54:28.980Z,11.80
2018-01-14T07:56:56.594Z,12.90
2018-01-14T07:59:25.017Z,14.43
2018-01-14T08:01:52.612Z,14.10
2018-01-14T08:04:20.232Z,14.63
2018-01-14T08:06:47.919Z,16.10
2018-01-14T08:09:15.673Z,15.90
2018-01-14T08:11:43.358Z,16.07
2018-01-14T08:14:10.975Z,15.60
2018-01-14T08:16:38.616Z,15.40
2018-01-14T08:19:06.413Z,16.53
2018-01-14T08:21:34.041Z,16.40
2018-01-14T08:24:01.716Z,15.80
2018-01-14T08:26:29.356Z,17.17
2018-01-14T08:28:57.100Z,15.03
2018-01-14T08:31:25.636Z,17.10
2018-01-14T08:33:54.218Z,17.57
2018-01-14T08:36:21.818Z,16.40
2018-01-14T08:38:49.708Z,17.23
2018-01-14T08:41:17.506Z,16.10
2018-01-14T08:43:45.248Z,15.93
2018-01-14T08:46:12.864Z,15.40
2018-01-14T08:48:40.450Z,15.53
2018-01-14T08:51:08.150Z,16.90
2018-01-14T08:53:35.911Z,16.67
2018-01-14T08:56:03.498Z,15.90
2018-01-14T08:58:31.228Z,15.40
2018-01-14T09:00:58.923Z,18.40
2018-01-14T09:03:26.610Z,16.20
2018-01-14T09:05:55.049Z,14.87
2018-01-14T09:08:22.677Z,15.57
2018-01-14T09:10:50.334Z,17.27
2018-01-14T09:13:17.926Z,15.20
2018-01-14T09:15:45.721Z,15.97
2018-01-14T09:18:14.088Z,15.40
2018-01-14T09:20:42.562Z,15.73
2018-01-14T09:23:10.262Z,12.03
2018-01-14T09:28:37.605Z,13.33
2018-01-14T09:31:05.358Z,12.90
2018-01-14T09:33:33.029Z,14.20
2018-01-14T09:36:01.414Z,15.00
2018-01-14T09:38:29.884Z,15.77
2018-01-14T09:40:58.271Z,15.40
2018-01-14T09:43:26.623Z,13.23
2018-01-14T09:45:54.324Z,15.00
2018-01-14T09:48:21.924Z,12.73
2018-01-14T09:50:50.238Z,13.90
2018-01-14T09:53:18.610Z,14.60
2018-01-14T09:55:47.024Z,14.93
2018-01-14T09:58:14.740Z,15.20
2018-01-14T10:00:42.493Z,12.27
2018-01-14T10:03:10.229Z,14.40
2018-01-14T10:05:37.831Z,13.30
2018-01-14T10:08:06.470Z,13.47
2018-01-14T10:10:34.129Z,13.97
2018-01-14T10:13:01.720Z,14.60
2018-01-14T10:15:29.350Z,15.40
2018-01-14T10:17:57.215Z,13.87
2018-01-14T10:20:24.865Z,13.37
2018-01-14T10:22:52.509Z,13.97
2018-01-14T10:25:21.010Z,13.80
2018-01-14T10:27:48.851Z,14.40
2018-01-14T10:30:16.442Z,13.70
2018-01-14T10:32:44.063Z,13.43
2018-01-14T10:35:11.675Z,13.37
2018-01-14T10:37:39.416Z,11.37
2018-01-14T10:40:07.017Z,10.70
2018-01-14T10:42:35.447Z,11.40
2018-01-14T10:45:03.047Z,11.33
2018-01-14T10:47:30.685Z,9.80
2018-01-14T10:49:58.543Z,12.33
2018-01-14T10:52:26.403Z,11.00
2018-01-14T10:54:54.094Z,10.77
2018-01-14T10:57:21.794Z,11.70
2018-01-14T10:59:49.412Z,13.03
2018-01-14T11:02:17.198Z,11.53
2018-01-14T11:04:45.645Z,11.30
2018-01-14T11:07:13.268Z,11.87
2018-01-14T11:09:41.129Z,11.17
2018-01-14T11:12:08.860Z,12.00
2018-01-14T11:14:37.496Z,10.20
2018-01-14T11:17:05.087Z,12.33
2018-01-14T11:19:32.815Z,11.40
2018-01-14T11:22:00.530Z,10.47
2018-01-14T11:24:29.000Z,10.60
2018-01-14T11:26:57.538Z,12.20
2018-01-14T11:29:37.485Z,11.07
2018-01-14T11:32:05.094Z,14.07
2018-01-14T11:34:33.625Z,12.03
2018-01-14T11:37:01.386Z,10.53
2018-01-14T11:39:28.972Z,11.90
2018-01-14T11:41:57.362Z,11.87
2018-01-14T11:44:25.816Z,13.00
2018-01-14T11:46:54.304Z,11.97
2018-01-14T11:49:22.145Z,11.53
2018-01-14T11:51:49.759Z,12.63
2018-01-14T11:54:17.521Z,13.93
2018-01-14T11:56:46.012Z,12.87
2018-01-14T11:59:13.656Z,14.13
2018-01-14T12:01:42.186Z,13.13
2018-01-14T12:04:09.868Z,13.27
2018-01-14T12:06:37.487Z,11.93
2018-01-14T12:09:05.092Z,13.70
2018-01-14T12:11:32.775Z,11.80
2018-01-14T12:14:00.431Z,12.20
2018-01-14T12:16:28.814Z,11.90
2018-01-14T12:18:57.192Z,12.40
2018-01-14T12:21:25.722Z,13.23
2018-01-14T12:23:53.485Z,12.30
2018-01-14T12:26:21.074Z,12.57
2018-01-14T12:28:48.655Z,15.20
2018-01-14T12:31:17.147Z,13.30
2018-01-14T12:36:48.284Z,12.00
2018-01-14T12:39:15.904Z,13.37
2018-01-14T12:41:43.765Z,11.83
2018-01-14T12:44:11.527Z,12.20
2018-01-14T12:46:39.209Z,14.20
2018-01-14T12:49:06.979Z,12.90
2018-01-14T12:51:34.580Z,13.80
2018-01-14T12:54:02.230Z,12.70
2018-01-14T12:56:29.930Z,11.80
2018-01-14T12:58:57.597Z,11.50
2018-01-14T13:01:25.230Z,11.80
2018-01-14T13:03:52.862Z,10.50
2018-01-14T13:06:21.391Z,12.20
2018-01-14T13:08:49.016Z,10.60
2018-01-14T13:11:16.628Z,11.60
2018-01-14T13:13:44.317Z,11.60
2018-01-14T13:16:12.690Z,11.17
2018-01-14T13:18:41.173Z,10.40
2018-01-14T13:21:09.587Z,14.80
2018-01-14T13:23:37.229Z,28.77
2018-01-14T13:26:04.836Z,10.90
2018-01-14T13:28:32.420Z,9.00
2018-01-14T13:31:00.188Z,10.17
2018-01-14T13:33:28.604Z,9.33
2018-01-14T13:35:56.201Z,8.57
2018-01-14T13:38:23.810Z,10.57
2018-01-14T13:40:51.438Z,10.53
2018-01-14T13:43:19.026Z,10.80
2018-01-14T13:45:46.640Z,12.10
2018-01-14T13:48:14.238Z,12.20
2018-01-14T13:50:42.820Z,10.53
2018-01-14T13:53:10.496Z,10.77
2018-01-14T13:55:38.135Z,10.97
2018-01-14T13:58:06.525Z,11.53
2018-01-14T14:00:34.421Z,12.60
2018-01-14T14:03:02.217Z,12.80
2018-01-14T14:05:29.820Z,12.23
2018-01-14T14:07:57.535Z,11.67
2018-01-14T14:10:26.086Z,13.40
2018-01-14T14:12:53.685Z,12.40
2018-01-14T14:15:22.206Z,11.27
2018-01-14T14:17:49.831Z,14.00
2018-01-14T14:20:18.228Z,12.60
2018-01-14T14:22:45.844Z,11.93
2018-01-14T14:25:13.475Z,10.97
2018-01-14T14:27:41.194Z,10.87
2018-01-14T14:30:09.722Z,12.10
2018-01-14T14:32:37.314Z,10.30
2018-01-14T14:35:05.042Z,11.87
2018-01-14T14:37:32.644Z,12.07
2018-01-14T14:40:01.040Z,13.27
2018-01-14T14:42:28.641Z,10.83
2018-01-14T14:44:56.267Z,11.03
2018-01-14T14:47:23.962Z,10.10
2018-01-14T14:49:51.584Z,11.30
2018-01-14T14:52:19.249Z,12.40
2018-01-14T14:54:46.894Z,12.37
2018-01-14T14:57:14.528Z,10.97
2018-01-14T14:59:42.932Z,11.50
2018-01-14T15:02:10.611Z,11.40
2018-01-14T15:04:38.399Z,11.00
2018-01-14T15:07:06.037Z,11.60
2018-01-14T15:09:33.740Z,11.67
2018-01-14T15:12:01.333Z,10.67
2018-01-14T15:14:29.686Z,11.70
2018-01-14T15:17:00.245Z,11.33
2018-01-14T15:19:28.014Z,11.53
2018-01-14T15:21:55.612Z,10.73
2018-01-14T15:24:23.296Z,10.33
2018-01-14T15:26:50.954Z,10.70
2018-01-14T15:29:18.669Z,11.30
2018-01-14T15:31:56.557Z,11.37
2018-01-14T15:34:24.198Z,11.33
2018-01-14T15:36:52.576Z,11.53
2018-01-14T15:39:20.391Z,11.13
2018-01-14T15:41:48.038Z,11.87
2018-01-14T15:44:15.816Z,12.10
2018-01-14T15:46:43.474Z,10.83
2018-01-14T15:49:11.073Z,12.67
2018-01-14T15:51:39.445Z,11.80
2018-01-14T15:54:08.091Z,12.70
2018-01-14T15:56:35.733Z,12.90
2018-01-14T15:59:03.515Z,12.30
2018-01-14T16:01:31.380Z,12.17
2018-01-14T16:03:59.246Z,13.17
2018-01-14T16:06:26.886Z,12.87
2018-01-14T16:08:54.528Z,12.37
2018-01-14T16:11:22.162Z,13.17
2018-01-14T16:13:50.554Z,12.73
2018-01-14T16:16:19.081Z,13.93
2018-01-14T16:18:46.842Z,12.50
2018-01-14T16:21:14.430Z,11.90
2018-01-14T16:23:42.028Z,12.90
2018-01-14T16:26:09.668Z,13.10
2018-01-14T16:28:38.247Z,12.07
2018-01-14T16:31:06.712Z,12.00
2018-01-14T16:33:34.298Z,13.30
2018-01-14T16:36:02.931Z,13.93
2018-01-14T16:38:30.686Z,12.73
2018-01-14T16:40:58.333Z,12.60
2018-01-14T16:43:25.955Z,12.27
2018-01-14T16:45:54.450Z,13.07
2018-01-14T16:48:22.166Z,14.43
2018-01-14T16:50:49.931Z,13.57
2018-01-14T16:53:17.566Z,13.90
2018-01-14T16:55:45.163Z,14.90
2018-01-14T16:58:13.707Z,13.90
2018-01-14T17:00:41.357Z,13.20
2018-01-14T17:03:09.179Z,13.20
2018-01-14T17:05:37.540Z,14.17
2018-01-14T17:08:05.307Z,13.00
2018-01-14T17:10:33.667Z,13.40
2018-01-14T17:13:01.300Z,13.80
2018-01-14T17:15:28.944Z,12.83
2018-01-14T17:17:56.730Z,12.80
2018-01-14T17:20:24.498Z,13.83
2018-01-14T17:22:52.202Z,12.57
2018-01-14T17:25:20.568Z,14.63
2018-01-14T17:27:49.014Z,13.27
2018-01-14T17:30:16.698Z,13.40
2018-01-14T17:32:44.489Z,13.93
2018-01-14T17:35:13.099Z,14.00
2018-01-14T17:37:40.700Z,13.63
2018-01-14T17:40:08.299Z,12.80
2018-01-14T17:42:36.098Z,13.77
2018-01-14T17:45:03.739Z,13.70
2018-01-14T17:47:31.522Z,14.83
2018-01-14T17:49:59.158Z,14.00
2018-01-14T17:52:26.758Z,12.93
2018-01-14T17:54:54.407Z,12.93
2018-01-14T17:57:22.191Z,13.63
2018-01-14T17:59:49.841Z,14.67
2018-01-14T18:02:17.448Z,15.23
2018-01-14T18:04:45.298Z,13.10
2018-01-14T18:07:13.673Z,15.63
2018-01-14T18:09:42.139Z,13.10
2018-01-14T18:12:09.957Z,14.67
2018-01-14T18:14:38.604Z,13.70
2018-01-14T18:17:07.334Z,14.30
2018-01-14T18:19:35.200Z,13.87
2018-01-14T18:22:02.885Z,14.13
2018-01-14T18:24:30.538Z,14.13
2018-01-14T18:26:58.194Z,14.57
2018-01-14T18:29:26.047Z,15.43
2018-01-14T18:31:53.676Z,15.37
2018-01-14T18:34:21.571Z,15.87
2018-01-14T18:36:49.173Z,15.07
2018-01-14T18:39:17.543Z,15.87
2018-01-14T18:41:46.256Z,15.10
2018-01-14T18:44:13.865Z,14.50
2018-01-14T18:46:41.458Z,14.97
2018-01-14T18:49:10.181Z,14.37
2018-01-14T18:51:37.784Z,16.03
2018-01-14T18:54:05.616Z,14.50
2018-01-14T18:56:33.356Z,14.27
2018-01-14T18:59:01.066Z,15.30
2018-01-14T19:01:28.727Z,14.83
2018-01-14T19:03:56.460Z,14.70
2018-01-14T19:06:24.060Z,15.50
2018-01-14T19:08:52.482Z,15.07
2018-01-14T19:11:20.184Z,15.33
2018-01-14T19:13:47.821Z,15.57
2018-01-14T19:16:15.526Z,15.77
2018-01-14T19:18:43.900Z,15.73
2018-01-14T19:21:12.445Z,15.97
2018-01-14T19:23:40.096Z,16.07
2018-01-14T19:26:07.724Z,15.43
2018-01-14T19:28:35.372Z,15.63
2018-01-14T19:31:03.738Z,16.43
2018-01-14T19:33:32.364Z,15.30
2018-01-14T19:36:00.003Z,15.53
2018-01-14T19:38:27.628Z,16.00
2018-01-14T19:40:55.406Z,15.43
2018-01-14T19:43:23.836Z,17.40
2018-01-14T19:45:51.496Z,15.80
2018-01-14T19:48:19.173Z,16.87
2018-01-14T19:50:46.897Z,15.93
2018-01-14T19:53:14.528Z,17.00
2018-01-14T19:55:42.888Z,16.70
2018-01-14T19:58:10.533Z,19.00
2018-01-14T20:00:38.259Z,17.90
2018-01-14T20:03:06.044Z,16.83
2018-01-14T20:05:33.955Z,17.23
2018-01-14T20:08:02.490Z,17.80
2018-01-14T20:10:30.135Z,16.93
2018-01-14T20:12:57.820Z,16.10
2018-01-14T20:15:25.410Z,16.50
2018-01-14T20:17:54.050Z,17.10
2018-01-14T20:20:21.652Z,17.30
2018-01-14T20:22:50.086Z,16.90
2018-01-14T20:25:17.851Z,17.43
2018-01-14T20:27:45.536Z,19.50
2018-01-14T20:30:13.149Z,18.87
2018-01-14T20:32:40.852Z,18.60
2018-01-14T20:35:08.622Z,17.43
2018-01-14T20:37:36.329Z,19.60
2018-01-14T20:40:03.958Z,19.10
2018-01-14T20:42:32.440Z,17.90
2018-01-14T20:45:00.917Z,18.47
2018-01-14T20:47:29.310Z,17.50
2018-01-14T20:49:56.948Z,18.73
2018-01-14T20:52:25.360Z,19.33
2018-01-14T20:54:52.989Z,17.63
2018-01-14T20:57:21.445Z,16.07
2018-01-14T20:59:49.109Z,16.90
2018-01-14T21:02:16.713Z,19.97
2018-01-14T21:04:44.611Z,18.40
2018-01-14T21:07:12.225Z,18.93
2018-01-14T21:09:40.625Z,18.80
2018-01-14T21:12:08.410Z,20.70
2018-01-14T21:14:36.069Z,18.90
2018-01-14T21:17:03.777Z,19.33
2018-01-14T21:19:32.329Z,17.63
2018-01-14T21:21:59.928Z,19.23
2018-01-14T21:24:27.675Z,18.20
2018-01-14T21:26:56.215Z,19.80
2018-01-14T21:29:23.920Z,20.73
2018-01-14T21:31:52.337Z,19.10
2018-01-14T21:34:20.173Z,20.47
2018-01-14T21:36:48.594Z,18.87
2018-01-14T21:39:16.252Z,20.20
2018-01-14T21:41:43.917Z,19.07
2018-01-14T21:44:11.657Z,21.77
2018-01-14T21:46:39.306Z,19.63
2018-01-14T21:49:07.065Z,20.00
2018-01-14T21:51:34.969Z,17.83
2018-01-14T21:54:02.570Z,18.20
2018-01-14T21:56:31.039Z,19.30
2018-01-14T21:58:58.666Z,17.53
2018-01-14T22:01:26.428Z,17.50
2018-01-14T22:03:54.069Z,18.50
2018-01-14T22:06:21.848Z,19.70
2018-01-14T22:08:49.449Z,18.67
2018-01-14T22:11:17.990Z,18.40
2018-01-14T22:13:45.669Z,20.43
2018-01-14T22:16:13.360Z,18.37
2018-01-14T22:18:42.001Z,18.80
2018-01-14T22:21:09.606Z,19.20
2018-01-14T22:23:38.133Z,19.13
2018-01-14T22:26:05.790Z,19.03
2018-01-14T22:28:33.378Z,19.20
2018-01-14T22:31:00.981Z,18.60
2018-01-14T22:33:28.774Z,18.40
2018-01-14T22:35:56.371Z,19.40
2018-01-14T22:38:24.331Z,19.27
2018-01-14T22:40:53.089Z,19.40
2018-01-14T22:43:20.678Z,20.83
2018-01-14T22:45:48.453Z,20.70
2018-01-14T22:48:16.812Z,19.80
2018-01-14T22:50:44.506Z,20.90
2018-01-14T22:53:12.308Z,21.40
2018-01-14T22:55:40.023Z,22.13
2018-01-14T22:58:08.597Z,19.90
2018-01-14T23:00:36.955Z,21.40
2018-01-14T23:03:04.721Z,21.50
2018-01-14T23:05:32.431Z,19.30
2018-01-14T23:08:00.144Z,21.97
2018-01-14T23:10:27.978Z,19.63
2018-01-14T23:12:55.671Z,19.90
2018-01-14T23:15:23.302Z,21.53
2018-01-14T23:17:50.891Z,20.83
2018-01-14T23:20:18.613Z,21.13
2018-01-14T23:22:46.220Z,19.63
2018-01-14T23:25:14.621Z,20.80
2018-01-14T23:27:42.306Z,20.30
2018-01-14T23:30:09.898Z,20.27
2018-01-14T23:32:37.605Z,18.90
2018-01-14T23:35:05.260Z,20.53
2018-01-14T23:37:32.856Z,21.03
2018-01-14T23:40:00.648Z,18.10
2018-01-14T23:42:28.233Z,16.90
2018-01-14T23:44:56.681Z,15.23
2018-01-14T23:47:24.411Z,16.57
2018-01-14T23:49:52.008Z,18.00
2018-01-14T23:52:19.645Z,17.60
2018-01-14T23:54:47.910Z,18.00
2018-01-14T23:57:15.540Z,16.60
2018-01-14T23:59:43.143Z,16.27
